createdAt,value
2018-09-16T00:01:16.787Z,143.47
2018-09-16T00:03:56.103Z,143.80
2018-09-16T00:06:34.068Z,152.03
2018-09-16T00:09:16.200Z,150.73
2018-09-16T00:11:56.863Z,146.77
2018-09-16T00:14:35.646Z,111.03
2018-09-16T00:17:14.464Z,165.00
2018-09-16T00:19:53.501Z,164.70
2018-09-16T00:22:35.165Z,146.00
2018-09-16T00:25:14.144Z,146.23
2018-09-16T00:27:53.149Z,136.47
2018-09-16T00:30:31.948Z,133.00
2018-09-16T00:33:10.446Z,114.30
2018-09-16T00:35:48.980Z,111.43
2018-09-16T00:38:28.327Z,106.73
2018-09-16T00:41:07.822Z,91.37
2018-09-16T00:43:46.786Z,89.83
2018-09-16T00:46:28.384Z,75.10
2018-09-16T00:49:07.551Z,73.43
2018-09-16T00:51:47.385Z,77.63
2018-09-16T00:54:26.505Z,70.13
2018-09-16T00:57:07.762Z,64.03
2018-09-16T00:59:46.805Z,62.90
2018-09-16T01:02:26.650Z,66.77
2018-09-16T01:05:04.727Z,62.50
2018-09-16T01:07:42.984Z,64.33
2018-09-16T01:10:24.047Z,59.03
2018-09-16T01:13:03.462Z,57.57
2018-09-16T01:15:43.867Z,52.30
2018-09-16T01:18:24.201Z,52.87
2018-09-16T01:21:03.244Z,53.23
2018-09-16T01:23:42.349Z,47.23
2018-09-16T01:26:21.828Z,44.70
2018-09-16T01:29:00.061Z,43.67
2018-09-16T01:31:41.361Z,39.83
2018-09-16T01:34:19.666Z,37.33
2018-09-16T01:36:58.884Z,37.70
2018-09-16T01:39:37.681Z,36.57
2018-09-16T01:42:16.443Z,39.10
2018-09-16T01:44:55.484Z,35.00
2018-09-16T01:47:34.700Z,37.93
2018-09-16T01:50:14.091Z,39.97
2018-09-16T01:52:53.928Z,38.17
2018-09-16T01:55:32.508Z,36.80
2018-09-16T01:58:12.481Z,37.30
2018-09-16T02:00:52.204Z,39.47
2018-09-16T02:03:31.282Z,37.67
2018-09-16T02:06:11.579Z,39.60
2018-09-16T02:08:51.204Z,39.07
2018-09-16T02:11:30.665Z,40.40
2018-09-16T02:14:09.426Z,42.30
2018-09-16T02:16:48.297Z,40.80
2018-09-16T02:19:26.820Z,43.67
2018-09-16T02:22:06.305Z,41.80
2018-09-16T02:24:45.227Z,41.30
2018-09-16T02:27:23.523Z,39.27
2018-09-16T02:30:02.153Z,40.77
2018-09-16T02:32:42.803Z,41.27
2018-09-16T02:35:22.067Z,42.20
2018-09-16T02:38:01.063Z,43.30
2018-09-16T02:40:40.845Z,41.80
2018-09-16T02:43:19.612Z,47.73
2018-09-16T02:45:58.608Z,42.83
2018-09-16T02:48:39.242Z,41.07
2018-09-16T02:51:18.564Z,47.90
2018-09-16T02:53:57.285Z,46.53
2018-09-16T02:56:36.628Z,49.23
2018-09-16T02:59:17.109Z,43.37
2018-09-16T03:01:56.485Z,41.23
2018-09-16T03:04:36.738Z,44.97
2018-09-16T03:07:16.344Z,42.57
2018-09-16T03:09:55.068Z,54.83
2018-09-16T03:12:36.189Z,43.13
2018-09-16T03:15:15.482Z,42.27
2018-09-16T03:17:54.105Z,42.07
2018-09-16T03:20:32.744Z,48.77
2018-09-16T03:23:12.502Z,43.53
2018-09-16T03:25:50.223Z,45.73
2018-09-16T03:28:30.104Z,55.47
2018-09-16T03:31:09.079Z,46.60
2018-09-16T03:33:48.080Z,44.87
2018-09-16T03:36:27.343Z,43.00
2018-09-16T03:39:07.042Z,68.33
2018-09-16T03:41:45.763Z,53.43
2018-09-16T03:44:24.913Z,55.83
2018-09-16T03:47:04.246Z,50.67
2018-09-16T03:49:43.784Z,38.20
2018-09-16T03:52:22.944Z,47.60
2018-09-16T03:55:01.068Z,41.30
2018-09-16T03:57:39.771Z,40.93
2018-09-16T04:00:19.306Z,39.13
2018-09-16T04:02:58.807Z,47.03
2018-09-16T04:05:39.125Z,40.47
2018-09-16T04:08:17.485Z,38.30
2018-09-16T04:10:56.002Z,44.93
2018-09-16T04:13:35.150Z,33.57
2018-09-16T04:16:14.425Z,45.90
2018-09-16T04:18:53.207Z,38.57
2018-09-16T04:21:33.558Z,44.67
2018-09-16T04:24:12.362Z,36.37
2018-09-16T04:26:50.781Z,37.57
2018-09-16T04:29:29.959Z,40.63
2018-09-16T04:32:10.905Z,38.57
2018-09-16T04:34:49.567Z,40.97
2018-09-16T04:37:29.685Z,56.73
2018-09-16T04:40:09.943Z,67.87
2018-09-16T04:42:48.623Z,48.37
2018-09-16T04:45:27.884Z,49.47
2018-09-16T04:48:07.184Z,36.70
2018-09-16T04:50:46.307Z,39.67
2018-09-16T04:53:27.141Z,51.50
2018-09-16T04:56:05.720Z,50.17
2018-09-16T04:58:45.287Z,33.60
2018-09-16T05:01:24.365Z,45.43
2018-09-16T05:04:03.945Z,33.57
2018-09-16T05:06:42.866Z,38.43
2018-09-16T05:09:21.924Z,44.03
2018-09-16T05:12:01.459Z,45.07
2018-09-16T05:14:40.865Z,44.83
2018-09-16T05:17:19.642Z,60.07
2018-09-16T05:19:58.084Z,52.00
2018-09-16T05:22:38.063Z,63.00
2018-09-16T05:25:18.259Z,64.77
2018-09-16T05:27:58.341Z,54.07
2018-09-16T05:30:37.105Z,50.07
2018-09-16T05:33:16.625Z,62.63
2018-09-16T05:35:55.521Z,55.07
2018-09-16T05:38:36.301Z,53.73
2018-09-16T05:41:16.939Z,48.50
2018-09-16T05:43:57.464Z,48.57
2018-09-16T05:46:40.522Z,48.07
2018-09-16T05:49:19.785Z,44.63
2018-09-16T05:52:01.028Z,51.33
2018-09-16T05:54:39.681Z,49.70
2018-09-16T05:57:18.712Z,53.07
2018-09-16T05:59:59.003Z,39.23
2018-09-16T06:02:39.984Z,39.83
2018-09-16T06:05:19.223Z,40.83
2018-09-16T06:07:58.277Z,42.07
2018-09-16T06:10:37.487Z,41.83
2018-09-16T06:13:18.781Z,39.97
2018-09-16T06:15:58.184Z,42.77
2018-09-16T06:18:37.621Z,46.53
2018-09-16T06:21:19.023Z,53.37
2018-09-16T06:23:58.302Z,57.43
2018-09-16T06:26:38.120Z,62.60
2018-09-16T06:29:17.270Z,78.77
2018-09-16T06:31:57.103Z,128.87
2018-09-16T06:34:35.427Z,81.20
2018-09-16T06:37:13.012Z,116.87
2018-09-16T06:39:53.781Z,122.27
2018-09-16T06:42:32.002Z,160.00
2018-09-16T06:45:10.813Z,187.57
2018-09-16T06:47:48.228Z,236.40
2018-09-16T06:50:27.583Z,179.13
2018-09-16T06:53:06.717Z,214.97
2018-09-16T06:55:46.264Z,133.37
2018-09-16T06:58:25.266Z,76.60
2018-09-16T07:01:04.909Z,56.90
2018-09-16T07:03:44.460Z,42.03
2018-09-16T07:06:24.440Z,52.43
2018-09-16T07:09:05.543Z,42.30
2018-09-16T07:11:43.267Z,41.03
2018-09-16T07:14:21.184Z,39.03
2018-09-16T07:17:03.618Z,42.80
2018-09-16T07:19:41.326Z,66.07
2018-09-16T07:22:21.228Z,78.70
2018-09-16T07:25:02.146Z,84.57
2018-09-16T07:27:44.269Z,54.60
2018-09-16T07:30:23.382Z,36.07
2018-09-16T07:33:03.560Z,39.80
2018-09-16T07:35:42.120Z,46.03
2018-09-16T07:38:22.043Z,108.00
2018-09-16T07:41:02.387Z,115.80
2018-09-16T07:43:41.543Z,142.07
2018-09-16T07:46:36.113Z,213.83
2018-09-16T07:49:15.581Z,149.73
2018-09-16T07:51:55.372Z,146.90
2018-09-16T07:54:35.225Z,35.73
2018-09-16T07:57:13.520Z,69.57
2018-09-16T07:59:53.323Z,163.70
2018-09-16T08:02:32.783Z,79.87
2018-09-16T08:05:11.328Z,36.03
2018-09-16T08:07:49.883Z,28.23
2018-09-16T08:10:29.987Z,30.73
2018-09-16T08:13:08.213Z,98.17
2018-09-16T08:15:45.951Z,213.10
2018-09-16T08:18:23.090Z,74.83
2018-09-16T08:20:59.890Z,40.03
2018-09-16T08:23:36.903Z,46.47
2018-09-16T08:26:19.670Z,331.73
2018-09-16T08:28:57.364Z,245.30
2018-09-16T08:31:33.839Z,191.93
2018-09-16T08:34:10.268Z,69.53
2018-09-16T08:36:52.185Z,38.17
2018-09-16T08:39:30.621Z,51.20
2018-09-16T08:42:09.585Z,189.07
2018-09-16T08:44:48.527Z,88.10
2018-09-16T08:47:28.763Z,148.23
2018-09-16T08:50:06.245Z,58.23
2018-09-16T08:52:49.863Z,30.57
2018-09-16T08:55:30.026Z,112.83
2018-09-16T08:58:09.005Z,27.47
2018-09-16T09:00:48.050Z,27.93
2018-09-16T09:03:27.183Z,31.60
2018-09-16T09:06:09.345Z,29.73
2018-09-16T09:08:47.452Z,22.53
2018-09-16T09:11:25.105Z,22.10
2018-09-16T09:14:01.583Z,27.20
2018-09-16T09:16:39.153Z,23.40
2018-09-16T09:19:21.133Z,39.87
2018-09-16T09:21:58.845Z,38.90
2018-09-16T09:24:38.122Z,25.33
2018-09-16T09:27:19.608Z,27.93
2018-09-16T09:29:57.865Z,61.10
2018-09-16T09:32:38.607Z,39.87
2018-09-16T09:35:18.691Z,32.43
2018-09-16T09:37:58.671Z,21.70
2018-09-16T09:40:37.747Z,19.20
2018-09-16T09:43:18.843Z,19.97
2018-09-16T09:45:57.603Z,19.30
2018-09-16T09:48:37.642Z,18.63
2018-09-16T09:51:16.361Z,17.73
2018-09-16T09:53:54.691Z,17.67
2018-09-16T09:56:31.732Z,17.77
2018-09-16T09:59:10.071Z,18.27
2018-09-16T10:01:50.467Z,20.50
2018-09-16T10:04:27.282Z,16.73
2018-09-16T10:07:05.666Z,22.20
2018-09-16T10:09:45.047Z,23.33
2018-09-16T10:12:22.223Z,16.80
2018-09-16T10:15:00.201Z,17.70
2018-09-16T10:17:38.745Z,16.90
2018-09-16T10:20:18.143Z,19.33
2018-09-16T10:22:57.104Z,23.33
2018-09-16T10:25:34.603Z,27.90
2018-09-16T10:28:11.144Z,32.87
2018-09-16T10:30:50.726Z,33.43
2018-09-16T10:33:28.489Z,31.03
2018-09-16T10:36:10.988Z,29.43
2018-09-16T10:38:47.604Z,20.67
2018-09-16T10:41:24.525Z,20.40
2018-09-16T10:44:03.687Z,23.37
2018-09-16T10:46:40.312Z,17.53
2018-09-16T10:49:20.543Z,23.13
2018-09-16T10:52:01.624Z,20.93
2018-09-16T10:54:40.667Z,20.20
2018-09-16T10:57:19.584Z,19.20
2018-09-16T10:59:59.827Z,20.50
2018-09-16T11:02:37.123Z,18.10
2018-09-16T11:05:16.962Z,19.53
2018-09-16T11:07:58.992Z,19.07
2018-09-16T11:10:38.722Z,20.30
2018-09-16T11:13:21.472Z,20.00
2018-09-16T11:16:01.167Z,20.30
2018-09-16T11:18:39.242Z,21.60
2018-09-16T11:21:19.725Z,20.25
2018-09-16T11:24:03.981Z,20.08
2018-09-16T11:26:45.463Z,22.03
2018-09-16T11:29:26.609Z,20.63
2018-09-16T11:32:13.859Z,19.57
2018-09-16T11:34:53.903Z,22.57
2018-09-16T11:37:36.204Z,22.50
2018-09-16T11:40:18.082Z,19.87
2018-09-16T11:43:00.124Z,20.37
2018-09-16T11:45:42.705Z,19.00
2018-09-16T11:48:25.282Z,18.80
2018-09-16T11:51:11.882Z,23.05
2018-09-16T11:53:49.161Z,21.57
2018-09-16T11:56:31.548Z,20.48
2018-09-16T11:59:13.187Z,21.25
2018-09-16T12:01:54.159Z,21.87
2018-09-16T12:04:38.603Z,23.20
2018-09-16T12:07:16.205Z,21.77
2018-09-16T12:09:54.304Z,18.12
2018-09-16T12:12:32.540Z,26.05
2018-09-16T12:15:13.983Z,25.48
2018-09-16T12:17:55.608Z,26.00
2018-09-16T12:20:33.427Z,23.62
2018-09-16T12:23:27.785Z,27.25
2018-09-16T12:26:07.530Z,27.42
2018-09-16T12:28:47.025Z,30.88
2018-09-16T12:31:25.247Z,34.48
2018-09-16T12:34:04.164Z,34.63
2018-09-16T12:36:43.086Z,39.63
2018-09-16T12:39:22.564Z,38.48
2018-09-16T12:42:03.440Z,41.53
2018-09-16T12:44:44.061Z,40.00
2018-09-16T12:47:23.602Z,40.80
2018-09-16T12:50:03.424Z,41.55
2018-09-16T12:52:58.324Z,42.08
2018-09-16T12:55:37.962Z,41.75
2018-09-16T12:58:17.640Z,41.48
2018-09-16T13:00:57.763Z,44.50
2018-09-16T13:03:41.145Z,43.92
2018-09-16T13:06:21.302Z,44.63
2018-09-16T13:08:58.824Z,47.90
2018-09-16T13:11:35.463Z,43.45
2018-09-16T13:14:15.607Z,42.35
2018-09-16T13:16:54.641Z,45.15
2018-09-16T13:19:34.546Z,47.15
2018-09-16T13:22:14.582Z,43.50
2018-09-16T13:24:53.744Z,45.45
2018-09-16T13:27:30.947Z,44.03
2018-09-16T13:30:10.162Z,47.30
2018-09-16T13:32:49.726Z,48.80
2018-09-16T13:35:28.143Z,51.48
2018-09-16T13:38:08.253Z,48.70
2018-09-16T13:40:46.765Z,51.15
2018-09-16T13:43:26.889Z,51.63
2018-09-16T13:46:07.567Z,54.70
2018-09-16T13:48:47.125Z,53.95
2018-09-16T13:51:40.250Z,52.43
2018-09-16T13:54:18.289Z,51.83
2018-09-16T13:56:57.601Z,53.25
2018-09-16T13:59:37.204Z,52.25
2018-09-16T14:02:17.266Z,47.27
2018-09-16T14:04:58.100Z,49.45
2018-09-16T14:07:37.743Z,53.13
2018-09-16T14:10:19.041Z,49.45
2018-09-16T14:12:59.393Z,52.78
2018-09-16T14:15:40.065Z,49.67
2018-09-16T14:18:19.802Z,52.15
2018-09-16T14:20:58.944Z,48.33
2018-09-16T14:23:39.610Z,37.03
2018-09-16T14:26:20.562Z,48.90
2018-09-16T14:29:01.805Z,49.88
2018-09-16T14:31:39.728Z,44.88
2018-09-16T14:34:19.644Z,34.58
2018-09-16T14:36:58.495Z,40.28
2018-09-16T14:39:37.860Z,34.18
2018-09-16T14:42:16.085Z,41.75
2018-09-16T14:44:54.805Z,42.05
2018-09-16T14:47:36.662Z,42.35
2018-09-16T14:50:14.905Z,46.92
2018-09-16T14:52:55.122Z,40.48
2018-09-16T14:55:33.305Z,45.35
2018-09-16T14:58:14.048Z,47.15
2018-09-16T15:00:56.103Z,35.10
2018-09-16T15:03:33.324Z,23.70
2018-09-16T15:06:10.125Z,36.70
2018-09-16T15:08:48.232Z,20.68
2018-09-16T15:11:27.224Z,30.50
2018-09-16T15:14:04.158Z,30.35
2018-09-16T15:16:41.146Z,19.10
2018-09-16T15:19:21.082Z,30.30
2018-09-16T15:22:00.182Z,19.40
2018-09-16T15:24:38.223Z,23.83
2018-09-16T15:27:19.202Z,21.62
2018-09-16T15:29:58.179Z,28.02
2018-09-16T15:32:39.621Z,18.40
2018-09-16T15:35:21.082Z,22.70
2018-09-16T15:38:05.219Z,24.52
2018-09-16T15:40:44.682Z,23.18
2018-09-16T15:43:23.025Z,26.35
2018-09-16T15:46:04.801Z,27.20
2018-09-16T15:48:46.744Z,21.62
2018-09-16T15:51:26.762Z,23.17
2018-09-16T15:54:04.742Z,21.57
2018-09-16T15:56:46.997Z,22.48
2018-09-16T15:59:28.101Z,19.05
2018-09-16T16:02:14.328Z,18.80
2018-09-16T16:04:52.358Z,17.27
2018-09-16T16:07:31.563Z,20.33
2018-09-16T16:10:09.164Z,16.90
2018-09-16T16:12:48.786Z,16.33
2018-09-16T16:15:29.719Z,16.67
2018-09-16T16:18:08.066Z,21.05
2018-09-16T16:20:48.943Z,19.80
2018-09-16T16:23:28.423Z,16.97
2018-09-16T16:26:05.406Z,18.60
2018-09-16T16:28:44.826Z,19.23
2018-09-16T16:31:23.250Z,17.37
2018-09-16T16:34:02.506Z,18.00
2018-09-16T16:36:40.123Z,17.57
2018-09-16T16:39:19.331Z,17.60
2018-09-16T16:42:01.105Z,17.77
2018-09-16T16:44:38.287Z,19.10
2018-09-16T16:47:14.629Z,17.67
2018-09-16T16:49:55.851Z,18.40
2018-09-16T16:52:37.501Z,18.47
2018-09-16T16:55:17.887Z,16.80
2018-09-16T16:57:59.583Z,16.20
2018-09-16T17:00:41.392Z,15.93
2018-09-16T17:03:20.950Z,16.50
2018-09-16T17:05:59.100Z,16.83
2018-09-16T17:08:40.583Z,16.70
2018-09-16T17:11:20.182Z,17.17
2018-09-16T17:14:00.665Z,18.87
2018-09-16T17:16:39.063Z,21.67
2018-09-16T17:19:18.223Z,33.73
2018-09-16T17:21:55.265Z,30.50
2018-09-16T17:24:32.600Z,38.40
2018-09-16T17:27:10.888Z,63.33
2018-09-16T17:29:50.127Z,98.60
2018-09-16T17:32:29.326Z,142.23
2018-09-16T17:35:07.006Z,145.73
2018-09-16T17:37:46.728Z,205.23
2018-09-16T17:40:26.505Z,297.17
2018-09-16T17:43:04.528Z,289.67
2018-09-16T17:45:44.702Z,268.00
2018-09-16T17:48:23.890Z,210.20
2018-09-16T17:51:02.047Z,162.90
2018-09-16T17:53:45.021Z,123.60
2018-09-16T17:56:23.123Z,98.53
2018-09-16T17:59:00.083Z,109.50
2018-09-16T18:01:38.829Z,79.63
2018-09-16T18:04:21.103Z,73.60
2018-09-16T18:07:01.359Z,70.47
2018-09-16T18:09:39.803Z,67.83
2018-09-16T18:12:18.542Z,60.53
2018-09-16T18:14:58.807Z,44.50
2018-09-16T18:17:38.361Z,33.77
2018-09-16T18:20:18.684Z,26.83
2018-09-16T18:22:58.466Z,21.73
2018-09-16T18:25:38.224Z,21.03
2018-09-16T18:28:19.219Z,37.67
2018-09-16T18:30:57.483Z,41.40
2018-09-16T18:33:37.365Z,25.13
2018-09-16T18:36:16.627Z,24.83
2018-09-16T18:38:54.286Z,23.70
2018-09-16T18:41:35.184Z,25.73
2018-09-16T18:44:16.562Z,26.67
2018-09-16T18:46:55.852Z,29.13
2018-09-16T18:49:32.987Z,29.03
2018-09-16T18:52:09.828Z,35.50
2018-09-16T18:54:49.071Z,59.10
2018-09-16T18:57:26.451Z,65.93
2018-09-16T19:00:04.221Z,91.47
2018-09-16T19:02:43.682Z,71.47
2018-09-16T19:05:27.371Z,67.50
2018-09-16T19:08:07.487Z,52.43
2018-09-16T19:10:46.127Z,51.20
2018-09-16T19:13:24.910Z,44.90
2018-09-16T19:16:05.241Z,42.67
2018-09-16T19:18:41.900Z,38.57
2018-09-16T19:21:20.647Z,35.17
2018-09-16T19:23:59.124Z,33.07
2018-09-16T19:26:41.664Z,28.07
2018-09-16T19:29:20.608Z,26.30
2018-09-16T19:31:59.186Z,32.60
2018-09-16T19:34:38.068Z,33.00
2018-09-16T19:37:19.620Z,85.00
2018-09-16T19:39:58.980Z,186.20
2018-09-16T19:42:39.204Z,275.47
2018-09-16T19:45:18.887Z,455.87
2018-09-16T19:47:58.305Z,467.87
2018-09-16T19:50:37.442Z,430.10
2018-09-16T19:53:16.332Z,447.27
2018-09-16T19:55:57.926Z,476.43
2018-09-16T19:58:38.361Z,416.73
2018-09-16T20:01:18.143Z,449.50
2018-09-16T20:03:57.984Z,424.97
2018-09-16T20:06:36.221Z,314.63
2018-09-16T20:09:18.923Z,259.30
2018-09-16T20:11:58.762Z,249.13
2018-09-16T20:14:37.663Z,244.00
2018-09-16T20:17:17.208Z,246.80
2018-09-16T20:19:54.468Z,227.50
2018-09-16T20:22:34.630Z,148.90
2018-09-16T20:25:14.267Z,117.40
2018-09-16T20:27:55.082Z,77.40
2018-09-16T20:30:36.084Z,56.60
2018-09-16T20:33:16.524Z,50.23
2018-09-16T20:35:56.325Z,38.77
2018-09-16T20:38:37.486Z,34.40
2018-09-16T20:41:16.185Z,29.13
2018-09-16T20:43:55.223Z,26.70
2018-09-16T20:46:33.503Z,27.07
2018-09-16T20:49:12.765Z,30.13
2018-09-16T20:51:52.629Z,29.83
2018-09-16T20:54:31.261Z,27.30
2018-09-16T20:57:12.526Z,25.73
2018-09-16T20:59:51.507Z,26.10
2018-09-16T21:02:30.721Z,27.70
2018-09-16T21:05:09.221Z,25.10
2018-09-16T21:07:49.285Z,27.40
2018-09-16T21:10:28.801Z,31.43
2018-09-16T21:13:07.102Z,38.53
2018-09-16T21:15:47.426Z,50.80
2018-09-16T21:18:26.691Z,50.83
2018-09-16T21:21:05.269Z,62.27
2018-09-16T21:23:44.810Z,76.07
2018-09-16T21:26:23.482Z,79.57
2018-09-16T21:29:02.684Z,70.83
2018-09-16T21:31:41.306Z,73.60
2018-09-16T21:34:19.400Z,74.70
2018-09-16T21:36:58.064Z,73.63
2018-09-16T21:39:37.429Z,68.67
2018-09-16T21:42:17.002Z,86.03
2018-09-16T21:44:53.425Z,87.57
2018-09-16T21:47:32.690Z,69.63
2018-09-16T21:50:11.624Z,64.27
2018-09-16T21:52:51.105Z,52.47
2018-09-16T21:55:30.706Z,46.50
2018-09-16T21:58:09.908Z,46.17
2018-09-16T22:00:51.484Z,38.60
2018-09-16T22:03:30.604Z,38.70
2018-09-16T22:06:09.884Z,34.17
2018-09-16T22:08:48.501Z,31.57
2018-09-16T22:11:26.724Z,32.50
2018-09-16T22:14:05.510Z,30.83
2018-09-16T22:16:45.210Z,33.67
2018-09-16T22:19:23.223Z,34.17
2018-09-16T22:22:02.228Z,38.70
2018-09-16T22:24:40.544Z,42.27
2018-09-16T22:27:19.281Z,51.63
2018-09-16T22:29:58.328Z,57.03
2018-09-16T22:32:38.342Z,56.73
2018-09-16T22:35:16.761Z,55.13
2018-09-16T22:37:55.807Z,44.63
2018-09-16T22:40:34.824Z,40.17
2018-09-16T22:43:14.145Z,39.37
2018-09-16T22:45:54.388Z,44.60
2018-09-16T22:48:33.743Z,43.70
2018-09-16T22:51:12.648Z,40.63
2018-09-16T22:53:51.303Z,41.00
2018-09-16T22:56:29.482Z,43.03
2018-09-16T22:59:08.959Z,37.23
2018-09-16T23:01:48.421Z,38.50
2018-09-16T23:04:27.986Z,37.17
2018-09-16T23:07:07.227Z,34.97
2018-09-16T23:09:46.304Z,33.60
2018-09-16T23:12:25.943Z,32.67
2018-09-16T23:15:04.202Z,32.40
2018-09-16T23:17:42.921Z,31.53
2018-09-16T23:20:21.246Z,30.30
2018-09-16T23:23:00.546Z,30.27
2018-09-16T23:25:39.065Z,30.47
2018-09-16T23:28:18.267Z,29.80
2018-09-16T23:30:56.725Z,28.90
2018-09-16T23:33:36.021Z,26.80
2018-09-16T23:36:15.746Z,27.03
2018-09-16T23:38:54.859Z,27.23
2018-09-16T23:41:33.703Z,25.73
2018-09-16T23:44:12.288Z,27.73
2018-09-16T23:46:51.319Z,26.60
2018-09-16T23:49:30.501Z,26.70
2018-09-16T23:52:10.566Z,27.30
2018-09-16T23:54:49.661Z,26.93
2018-09-16T23:57:28.686Z,28.10
